Time;durP1;ratioP1;P1;durP2;ratioP2;P2;SDS_P1;SDS_P2;PMS_P1;PMS_P2;Temp;Humidity;BMP_temperature;BMP_pressure;BME280_temperature;BME280_humidity;BME280_pressure;Samples;Min_cycle;Max_cycle;Signal;HPM_P1;HPM_P2
2021/03/08 00:01:09;;;;;;;29.63;15.97;;;11.20;36.50;;;;;;5038855;28;20434;-89
2021/03/08 00:03:35;;;;;;;27.00;14.67;;;11.10;36.40;;;;;;5038477;28;20520;-90
2021/03/08 00:06:02;;;;;;;26.70;16.50;;;10.60;36.60;;;;;;5038612;28;20445;-89
2021/03/08 00:08:28;;;;;;;27.23;17.43;;;10.80;37.30;;;;;;5038598;28;20464;-90
2021/03/08 00:10:55;;;;;;;27.43;15.33;;;11.00;36.30;;;;;;5038639;28;20473;-89
2021/03/08 00:13:22;;;;;;;28.00;16.80;;;10.40;36.50;;;;;;5038654;28;20561;-89
2021/03/08 00:15:49;;;;;;;31.20;16.60;;;10.20;38.00;;;;;;5038671;28;20480;-90
2021/03/08 00:18:15;;;;;;;32.33;18.30;;;10.60;38.90;;;;;;5038480;28;20480;-89
2021/03/08 00:20:41;;;;;;;24.63;15.20;;;10.90;38.60;;;;;;5038429;28;20473;-90
2021/03/08 00:23:08;;;;;;;34.03;16.57;;;11.30;38.80;;;;;;5038632;28;20453;-89
2021/03/08 00:25:35;;;;;;;24.00;14.70;;;11.60;38.00;;;;;;5038369;28;20437;-89
2021/03/08 00:28:02;;;;;;;26.37;15.87;;;11.80;38.10;;;;;;5038722;28;20449;-89
2021/03/08 00:30:29;;;;;;;24.00;14.27;;;11.80;37.20;;;;;;5037912;28;20504;-89
2021/03/08 00:32:56;;;;;;;28.43;14.53;;;11.70;37.50;;;;;;5037997;28;20449;-90
2021/03/08 00:35:23;;;;;;;27.97;15.73;;;11.80;37.60;;;;;;5038495;28;20560;-90
2021/03/08 00:37:50;;;;;;;23.30;13.57;;;11.90;37.10;;;;;;5039722;28;20455;-89
2021/03/08 00:40:19;;;;;;;23.13;14.97;;;11.80;37.10;;;;;;5038432;28;20469;-89
2021/03/08 00:42:46;;;;;;;27.50;16.93;;;11.80;35.90;;;;;;5038120;28;20453;-89
2021/03/08 00:45:14;;;;;;;30.60;16.40;;;11.50;33.40;;;;;;5049218;28;20441;-90
2021/03/08 00:47:41;;;;;;;30.37;17.70;;;10.50;35.30;;;;;;5057083;28;20468;-89
2021/03/08 00:50:12;;;;;;;32.63;17.70;;;10.00;35.40;;;;;;5057174;28;20457;-88
2021/03/08 00:52:38;;;;;;;32.50;17.70;;;9.00;36.90;;;;;;5057825;28;20433;-87
2021/03/08 00:55:06;;;;;;;27.80;16.70;;;8.80;40.70;;;;;;5054578;28;20481;-90
2021/03/08 00:57:32;;;;;;;25.70;14.43;;;9.10;41.30;;;;;;5041061;28;20456;-90
2021/03/08 00:59:59;;;;;;;24.90;15.10;;;9.10;40.60;;;;;;5042971;28;20508;-90
2021/03/08 01:02:25;;;;;;;30.67;18.10;;;9.50;40.90;;;;;;5056933;28;20426;-90
2021/03/08 01:04:52;;;;;;;33.60;16.60;;;9.50;37.00;;;;;;5057704;28;20429;-86
2021/03/08 01:07:19;;;;;;;23.23;13.93;;;9.60;40.60;;;;;;5057700;28;20425;-90
2021/03/08 01:09:45;;;;;;;28.03;17.27;;;10.10;40.70;;;;;;5041815;28;20469;-90
2021/03/08 01:12:13;;;;;;;26.17;16.13;;;10.50;38.90;;;;;;5039839;28;20457;-90
2021/03/08 01:14:40;;;;;;;22.27;13.20;;;10.70;38.80;;;;;;5041461;28;20429;-91
2021/03/08 01:17:07;;;;;;;39.57;16.60;;;11.00;39.30;;;;;;5023586;28;20453;-91
2021/03/08 01:19:33;;;;;;;26.23;16.37;;;11.10;36.00;;;;;;5043454;28;20542;-90
2021/03/08 01:22:01;;;;;;;31.60;16.43;;;10.70;36.10;;;;;;5055364;28;20455;-89
2021/03/08 01:24:30;;;;;;;36.07;18.40;;;9.80;36.50;;;;;;5057867;28;20442;-90
2021/03/08 01:26:56;;;;;;;37.20;16.70;;;8.80;37.60;;;;;;5050204;28;20457;-90
2021/03/08 01:29:23;;;;;;;28.53;16.70;;;8.20;38.80;;;;;;5060023;28;20452;-90
2021/03/08 01:31:50;;;;;;;25.10;15.67;;;8.00;40.10;;;;;;5060151;28;20441;-88
2021/03/08 01:34:22;;;;;;;25.93;15.33;;;8.10;42.60;;;;;;5060875;28;20501;-90
2021/03/08 01:36:48;;;;;;;26.77;16.20;;;8.60;42.60;;;;;;5050391;28;20950;-90
2021/03/08 01:39:16;;;;;;;24.30;14.33;;;9.30;42.40;;;;;;5043056;28;20465;-90
2021/03/08 01:41:42;;;;;;;23.97;13.77;;;9.80;42.20;;;;;;5042018;28;20457;-91
2021/03/08 01:44:09;;;;;;;21.47;12.47;;;10.30;40.70;;;;;;5041908;28;20453;-91
2021/03/08 01:46:35;;;;;;;26.27;15.63;;;10.70;40.00;;;;;;5041867;28;20496;-91
2021/03/08 01:49:02;;;;;;;28.83;18.23;;;10.80;35.60;;;;;;5041393;28;20527;-91
2021/03/08 01:51:28;;;;;;;19.73;12.77;;;9.80;36.20;;;;;;5044034;28;20463;-91
2021/03/08 01:53:54;;;;;;;25.70;14.40;;;10.20;39.90;;;;;;5043275;28;20441;-90
2021/03/08 01:56:22;;;;;;;28.40;16.10;;;10.30;36.80;;;;;;5041512;28;20527;-91
2021/03/08 01:58:49;;;;;;;22.80;14.10;;;9.50;37.90;;;;;;5041158;28;20441;-91
2021/03/08 02:01:15;;;;;;;20.97;14.93;;;9.50;40.90;;;;;;5041085;28;20425;-90
2021/03/08 02:03:42;;;;;;;24.10;15.00;;;9.60;38.40;;;;;;5041300;28;20448;-91
2021/03/08 02:06:09;;;;;;;24.47;15.30;;;9.30;39.70;;;;;;5041074;28;20449;-90
2021/03/08 02:08:35;;;;;;;31.80;17.57;;;9.20;40.60;;;;;;5041103;28;20464;-91
2021/03/08 02:11:02;;;;;;;27.00;15.07;;;9.30;39.00;;;;;;5041155;28;20453;-91
2021/03/08 02:13:59;;;;;;;22.17;13.50;;;9.50;41.20;;;;;;5040994;28;20464;-91
2021/03/08 02:16:29;;;;;;;20.40;11.97;;;10.10;40.30;;;;;;5040382;28;20550;-90
2021/03/08 02:19:01;;;;;;;22.40;13.80;;;10.50;40.30;;;;;;5041056;28;20457;-91
2021/03/08 02:22:09;;;;;;;21.80;13.80;;;10.70;39.50;;;;;;5041243;28;20523;-91
2021/03/08 02:25:07;;;;;;;24.67;14.37;;;10.90;39.10;;;;;;5049838;28;20499;-90
2021/03/08 02:27:59;;;;;;;23.50;14.20;;;10.90;38.30;;;;;;5041376;28;20475;-91
2021/03/08 02:30:41;;;;;;;26.33;15.57;;;11.20;38.20;;;;;;5032017;28;20477;-91
2021/03/08 02:33:10;;;;;;;28.00;15.90;;;10.90;35.50;;;;;;5040720;28;20757;-90
2021/03/08 02:35:40;;;;;;;28.43;17.20;;;9.50;36.80;;;;;;5040423;28;20504;-91
2021/03/08 02:38:11;;;;;;;25.90;14.50;;;8.50;38.90;;;;;;5040625;28;20452;-91
2021/03/08 02:40:41;;;;;;;29.30;17.43;;;8.80;40.60;;;;;;5040407;28;20472;-91
2021/03/08 02:43:16;;;;;;;20.67;13.00;;;9.20;40.00;;;;;;5039891;28;20472;-91
2021/03/08 02:45:47;;;;;;;26.90;15.77;;;9.50;41.30;;;;;;5039893;28;20436;-91
2021/03/08 02:48:15;;;;;;;30.83;14.47;;;9.60;37.30;;;;;;5040878;28;20483;-90
2021/03/08 02:50:42;;;;;;;18.97;12.67;;;9.50;40.80;;;;;;5039866;28;20472;-90
2021/03/08 02:53:13;;;;;;;25.60;15.67;;;10.00;40.20;;;;;;5040771;28;20465;-91
2021/03/08 02:55:45;;;;;;;25.30;15.90;;;9.70;36.10;;;;;;5040912;28;20515;-91
2021/03/08 02:58:13;;;;;;;23.97;13.40;;;9.00;39.20;;;;;;5040070;28;20409;-91
2021/03/08 03:00:41;;;;;;;36.60;19.17;;;8.80;42.20;;;;;;5039387;28;20530;-91
2021/03/08 03:03:09;;;;;;;32.50;17.03;;;8.60;35.80;;;;;;5040315;28;20429;-91
2021/03/08 03:05:39;;;;;;;21.30;13.73;;;8.50;41.70;;;;;;5040449;28;20530;-91
2021/03/08 03:08:08;;;;;;;27.43;16.90;;;9.00;42.70;;;;;;5040080;28;20449;-91
2021/03/08 03:10:53;;;;;;;26.13;15.50;;;9.50;42.00;;;;;;5040012;28;20468;-91
2021/03/08 03:13:20;;;;;;;22.50;14.37;;;9.70;41.20;;;;;;5039263;28;20453;-91
2021/03/08 03:15:51;;;;;;;21.20;13.43;;;9.90;41.10;;;;;;5040083;28;20957;-90
2021/03/08 03:18:20;;;;;;;21.80;13.30;;;9.90;40.60;;;;;;5041645;28;20453;-91
2021/03/08 03:20:50;;;;;;;24.30;13.60;;;10.20;39.30;;;;;;5042980;28;20958;-91
2021/03/08 03:23:17;;;;;;;24.60;14.60;;;10.20;39.20;;;;;;5042985;28;20438;-91
2021/03/08 03:25:45;;;;;;;21.80;13.53;;;10.20;38.60;;;;;;5039596;28;20448;-91
2021/03/08 03:28:13;;;;;;;24.13;14.03;;;10.60;36.80;;;;;;5045670;28;20429;-90
2021/03/08 03:30:42;;;;;;;23.37;13.80;;;9.40;37.40;;;;;;5044389;28;20469;-91
2021/03/08 03:33:10;;;;;;;24.10;13.70;;;9.20;39.10;;;;;;5039909;28;20543;-91
2021/03/08 03:35:37;;;;;;;25.30;14.13;;;9.60;41.20;;;;;;5039412;28;20461;-91
2021/03/08 03:38:05;;;;;;;23.60;14.20;;;9.90;40.80;;;;;;5039425;28;20514;-90
2021/03/08 03:40:32;;;;;;;25.27;13.77;;;10.00;39.90;;;;;;5039617;28;20477;-90
2021/03/08 03:43:00;;;;;;;23.70;14.40;;;10.20;38.40;;;;;;5040370;28;20471;-91
2021/03/08 03:49:12;;;;;;;24.07;13.90;;;10.10;38.60;;;;;;5038996;28;20460;-91
2021/03/08 03:51:40;;;;;;;22.03;12.23;;;10.20;38.10;;;;;;5039944;28;20491;-90
2021/03/08 03:54:07;;;;;;;21.77;12.87;;;9.80;40.10;;;;;;5040154;28;20441;-91
2021/03/08 03:56:36;;;;;;;23.53;14.40;;;10.00;40.00;;;;;;5039843;28;20527;-90
2021/03/08 03:59:12;;;;;;;22.30;12.77;;;10.00;39.20;;;;;;5039508;28;20472;-90
2021/03/08 04:01:44;;;;;;;23.70;14.77;;;10.00;39.30;;;;;;5039395;28;20410;-91
2021/03/08 04:04:14;;;;;;;29.77;15.17;;;10.00;38.60;;;;;;5039691;28;20422;-91
2021/03/08 04:06:47;;;;;;;26.60;15.00;;;10.00;38.30;;;;;;5039281;28;20441;-91
2021/03/08 04:09:15;;;;;;;22.73;12.23;;;9.80;38.40;;;;;;5039108;28;20450;-90
2021/03/08 04:11:42;;;;;;;24.43;13.87;;;9.80;40.30;;;;;;5039649;28;20417;-91
2021/03/08 04:14:14;;;;;;;21.83;13.33;;;10.00;39.90;;;;;;5039113;28;20453;-90
2021/03/08 04:16:44;;;;;;;20.10;12.43;;;10.10;38.90;;;;;;5039439;28;20500;-90
2021/03/08 04:19:20;;;;;;;19.40;12.13;;;10.30;39.50;;;;;;5040141;28;20469;-90
2021/03/08 04:21:48;;;;;;;18.00;10.83;;;10.40;39.50;;;;;;5039725;28;20507;-90
2021/03/08 04:24:19;;;;;;;19.57;12.10;;;10.50;39.70;;;;;;5038153;28;20686;-90
2021/03/08 04:26:48;;;;;;;25.70;14.77;;;10.50;38.70;;;;;;5035096;28;20516;-91
2021/03/08 04:29:17;;;;;;;22.03;13.40;;;10.50;37.70;;;;;;5035287;28;20484;-91
2021/03/08 04:31:44;;;;;;;24.17;14.73;;;10.50;38.80;;;;;;5035105;28;20480;-91
2021/03/08 04:34:11;;;;;;;19.53;13.00;;;10.40;38.20;;;;;;5034955;28;20426;-91
2021/03/08 04:36:39;;;;;;;24.47;14.07;;;10.40;37.90;;;;;;5034681;28;20592;-91
2021/03/08 04:39:07;;;;;;;27.07;15.30;;;10.40;37.90;;;;;;5035946;28;20811;-91
2021/03/08 04:41:33;;;;;;;24.43;14.10;;;10.20;38.10;;;;;;5034779;28;20456;-90
2021/03/08 04:44:01;;;;;;;22.10;13.73;;;10.10;38.40;;;;;;5035034;28;20457;-91
2021/03/08 04:46:28;;;;;;;23.83;13.17;;;10.10;38.30;;;;;;5035289;28;20445;-91
2021/03/08 04:48:55;;;;;;;26.40;12.80;;;10.10;38.80;;;;;;5034851;28;20511;-91
2021/03/08 04:51:22;;;;;;;24.63;12.10;;;10.10;39.00;;;;;;5038553;28;20459;-90
2021/03/08 04:53:49;;;;;;;27.00;12.70;;;10.00;38.90;;;;;;5039190;28;20453;-91
2021/03/08 04:56:17;;;;;;;21.03;14.00;;;10.00;38.80;;;;;;5038784;28;20495;-91
2021/03/08 04:58:44;;;;;;;21.30;13.30;;;10.00;38.90;;;;;;5038629;28;20522;-90
2021/03/08 05:01:11;;;;;;;18.90;12.27;;;10.30;39.40;;;;;;5038830;28;20450;-91
2021/03/08 05:03:41;;;;;;;21.80;12.70;;;10.20;39.10;;;;;;5038787;28;20456;-91
2021/03/08 05:06:10;;;;;;;20.70;13.33;;;10.40;39.10;;;;;;5038852;28;20855;-91
2021/03/08 05:15:14;;;;;;;20.73;12.40;;;10.00;39.30;;;;;;5013359;28;20481;-91
2021/03/08 05:17:42;;;;;;;20.67;11.90;;;10.20;38.30;;;;;;5017264;28;20871;-91
2021/03/08 05:20:11;;;;;;;20.30;13.10;;;10.10;38.70;;;;;;5017445;28;20466;-91
2021/03/08 05:22:39;;;;;;;24.83;13.00;;;10.20;38.80;;;;;;5021341;28;20454;-91
2021/03/08 05:25:07;;;;;;;18.90;12.20;;;10.20;37.60;;;;;;5024234;28;20431;-90
2021/03/08 05:27:37;;;;;;;23.17;13.47;;;10.10;39.10;;;;;;5039034;28;20426;-90
2021/03/08 05:30:07;;;;;;;20.17;13.13;;;10.20;39.00;;;;;;5038624;28;20461;-89
2021/03/08 05:32:36;;;;;;;20.13;12.40;;;10.20;38.90;;;;;;5038916;28;20437;-88
2021/03/08 05:35:04;;;;;;;19.10;12.50;;;10.30;39.00;;;;;;5040865;28;20422;-88
2021/03/08 05:37:31;;;;;;;23.70;12.47;;;10.40;39.00;;;;;;5060565;28;20425;-88
2021/03/08 05:40:00;;;;;;;25.50;14.30;;;10.30;37.90;;;;;;5060559;28;20461;-89
2021/03/08 05:42:31;;;;;;;22.90;12.73;;;10.40;38.90;;;;;;5060015;28;20464;-88
2021/03/08 05:45:01;;;;;;;24.63;13.33;;;10.30;37.90;;;;;;5060431;28;20408;-90
2021/03/08 05:47:59;;;;;;;29.90;15.57;;;10.10;37.80;;;;;;5059514;28;20448;-89
2021/03/08 05:50:58;;;;;;;21.70;13.60;;;10.00;38.60;;;;;;5059181;28;20457;-90
2021/03/08 05:53:42;;;;;;;26.70;13.30;;;9.60;40.10;;;;;;5059007;28;20433;-90
2021/03/08 05:56:31;;;;;;;18.03;11.83;;;9.70;40.10;;;;;;5041081;28;20511;-92
2021/03/08 05:59:14;;;;;;;24.03;14.00;;;9.80;38.70;;;;;;5030142;28;20476;-91
2021/03/08 06:02:40;;;;;;;23.50;14.60;;;9.60;39.60;;;;;;5036702;28;20410;-91
2021/03/08 06:05:32;;;;;;;23.20;12.73;;;9.60;36.10;;;;;;4968176;28;20972;-91
2021/03/08 06:08:38;;;;;;;20.87;13.20;;;9.10;41.40;;;;;;4972471;28;20499;-91
2021/03/08 06:11:07;;;;;;;25.03;13.27;;;9.60;40.70;;;;;;4975547;28;20479;-91
2021/03/08 06:13:43;;;;;;;29.00;14.47;;;9.60;40.50;;;;;;4975192;28;20915;-91
2021/03/08 06:16:15;;;;;;;22.73;13.67;;;9.70;40.90;;;;;;4974680;28;21150;-92
2021/03/08 06:18:47;;;;;;;20.10;12.30;;;9.70;41.00;;;;;;4974736;28;20953;-91
2021/03/08 06:21:16;;;;;;;21.63;12.47;;;9.70;40.60;;;;;;4974063;28;20934;-91
2021/03/08 06:23:44;;;;;;;21.73;13.20;;;9.50;41.20;;;;;;4974396;28;21008;-91
2021/03/08 06:26:12;;;;;;;27.07;16.40;;;9.50;40.50;;;;;;4974017;28;20443;-91
2021/03/08 06:28:39;;;;;;;24.20;14.03;;;9.60;39.50;;;;;;4974467;28;20506;-91
2021/03/08 06:31:06;;;;;;;25.70;14.97;;;9.80;40.20;;;;;;4973525;28;20459;-91
2021/03/08 06:33:33;;;;;;;24.50;13.63;;;9.70;39.20;;;;;;4973380;28;20487;-91
2021/03/08 06:36:01;;;;;;;29.40;16.13;;;9.70;40.10;;;;;;5005084;28;20480;-91
2021/03/08 06:38:31;;;;;;;24.63;13.63;;;9.90;39.30;;;;;;5033800;28;20453;-90
2021/03/08 06:40:58;;;;;;;20.77;14.20;;;10.00;38.30;;;;;;5034521;28;20454;-91
2021/03/08 06:43:26;;;;;;;24.30;14.77;;;10.00;37.10;;;;;;5034850;28;20461;-91
2021/03/08 06:45:53;;;;;;;21.37;13.93;;;9.80;38.70;;;;;;5035078;28;20550;-91
2021/03/08 06:48:20;;;;;;;26.90;13.57;;;9.60;39.10;;;;;;5033790;28;20441;-90
2021/03/08 06:50:47;;;;;;;19.00;13.23;;;9.80;38.90;;;;;;5033662;28;20503;-91
2021/03/08 06:53:29;;;;;;;27.23;14.50;;;9.80;39.50;;;;;;5033997;28;20846;-91
2021/03/08 06:56:11;;;;;;;22.03;13.70;;;10.20;36.40;;;;;;5033930;28;20466;-91
2021/03/08 06:58:38;;;;;;;23.40;14.27;;;10.30;36.60;;;;;;5033987;28;20512;-91
2021/03/08 07:01:11;;;;;;;30.47;14.10;;;9.90;37.40;;;;;;5034048;28;20438;-91
2021/03/08 07:03:38;;;;;;;22.97;13.77;;;9.70;36.20;;;;;;5033821;28;20783;-91
2021/03/08 07:06:16;;;;;;;21.67;13.27;;;10.20;36.30;;;;;;5033507;28;20456;-90
2021/03/08 07:08:44;;;;;;;23.83;14.37;;;9.90;36.20;;;;;;5032958;28;20790;-91
2021/03/08 07:11:18;;;;;;;26.70;16.23;;;9.40;37.50;;;;;;5033856;28;20453;-91
2021/03/08 07:13:45;;;;;;;25.23;15.77;;;9.10;35.50;;;;;;5040049;28;20440;-90
2021/03/08 07:16:12;;;;;;;33.37;18.90;;;9.50;35.00;;;;;;5057105;28;20500;-85
2021/03/08 07:18:40;;;;;;;33.33;17.57;;;10.00;32.40;;;;;;5057782;28;20425;-86
2021/03/08 07:21:20;;;;;;;35.83;19.93;;;10.60;30.50;;;;;;5057831;28;20422;-86
2021/03/08 07:23:49;;;;;;;28.00;17.50;;;10.50;31.10;;;;;;5385683;22;20480;-84
2021/03/08 07:26:18;;;;;;;24.67;15.33;;;10.50;34.00;;;;;;5050515;28;20438;-84
2021/03/08 07:29:05;;;;;;;34.50;18.27;;;10.50;33.80;;;;;;5056983;28;20469;-84
2021/03/08 07:31:36;;;;;;;46.70;20.10;;;10.40;33.20;;;;;;5052291;28;20434;-85
2021/03/08 07:34:03;;;;;;;35.20;21.07;;;9.60;34.40;;;;;;5037610;28;20472;-85
2021/03/08 07:36:30;;;;;;;28.53;15.53;;;9.20;35.30;;;;;;5036412;28;20476;-86
2021/03/08 07:38:57;;;;;;;34.87;18.80;;;9.00;37.10;;;;;;5040631;28;20930;-86
2021/03/08 07:41:25;;;;;;;30.17;17.97;;;9.00;35.60;;;;;;5046016;28;20445;-86
2021/03/08 07:44:05;;;;;;;38.77;21.60;;;8.50;36.70;;;;;;5045316;28;20453;-86
2021/03/08 07:46:33;;;;;;;36.40;19.47;;;8.70;37.30;;;;;;5040257;28;20441;-86
2021/03/08 07:49:02;;;;;;;35.60;19.97;;;8.50;35.80;;;;;;5039582;28;20491;-86
2021/03/08 07:51:29;;;;;;;35.70;20.60;;;8.30;35.70;;;;;;5037031;28;20456;-86
2021/03/08 07:54:00;;;;;;;31.13;18.33;;;8.40;35.80;;;;;;5037339;28;20469;-85
2021/03/08 07:56:27;;;;;;;37.13;22.23;;;8.00;36.00;;;;;;5040720;28;20571;-86
2021/03/08 07:58:54;;;;;;;39.43;21.80;;;8.00;36.00;;;;;;5037423;28;20815;-86
2021/03/08 08:01:21;;;;;;;37.13;19.93;;;7.80;37.60;;;;;;5037094;28;20452;-87
2021/03/08 08:03:47;;;;;;;36.70;20.83;;;7.20;37.00;;;;;;5037134;28;20477;-87
2021/03/08 08:06:17;;;;;;;33.83;21.27;;;6.70;38.20;;;;;;5036063;28;20433;-87
2021/03/08 08:08:46;;;;;;;31.90;19.53;;;6.80;39.00;;;;;;5035840;28;20804;-86
2021/03/08 08:11:16;;;;;;;34.40;21.33;;;6.90;37.30;;;;;;5036841;28;20494;-86
2021/03/08 08:13:45;;;;;;;37.37;20.67;;;6.80;38.30;;;;;;5036189;28;20826;-86
2021/03/08 08:16:13;;;;;;;32.27;19.50;;;7.50;38.10;;;;;;5035616;28;20899;-86
2021/03/08 08:18:41;;;;;;;47.70;20.97;;;7.50;37.90;;;;;;5036593;28;20445;-86
2021/03/08 08:21:12;;;;;;;31.27;19.60;;;7.80;35.10;;;;;;5036094;28;20918;-86
2021/03/08 08:23:41;;;;;;;33.00;19.53;;;7.50;35.80;;;;;;5039837;28;20484;-87
2021/03/08 08:26:12;;;;;;;31.57;18.77;;;8.10;34.80;;;;;;5041676;28;20459;-86
2021/03/08 08:28:40;;;;;;;29.97;18.77;;;8.60;35.50;;;;;;5041322;28;20491;-87
2021/03/08 08:31:07;;;;;;;31.47;19.80;;;9.40;33.30;;;;;;5041490;28;20446;-86
2021/03/08 08:33:34;;;;;;;33.40;21.07;;;9.40;34.20;;;;;;5040557;28;20899;-86
2021/03/08 08:36:15;;;;;;;35.17;21.70;;;10.00;31.40;;;;;;5039760;28;20512;-86
2021/03/08 08:38:43;;;;;;;32.57;18.33;;;9.70;32.50;;;;;;5038837;28;20804;-86
2021/03/08 08:41:24;;;;;;;39.30;22.27;;;10.00;30.00;;;;;;5039491;28;20449;-87
2021/03/08 08:44:38;;;;;;;29.70;17.80;;;9.90;31.40;;;;;;5039691;28;20962;-87
2021/03/08 08:47:27;;;;;;;29.87;19.50;;;10.60;33.50;;;;;;5039032;28;20523;-87
2021/03/08 08:49:58;;;;;;;31.70;18.20;;;11.20;29.10;;;;;;5038493;28;20467;-87
2021/03/08 08:52:50;;;;;;;31.17;19.50;;;10.40;29.40;;;;;;5039552;28;20447;-86
2021/03/08 08:55:19;;;;;;;34.00;20.80;;;9.30;31.90;;;;;;5041391;28;20471;-86
2021/03/08 08:58:19;;;;;;;37.70;21.10;;;9.70;32.30;;;;;;5042027;28;20461;-86
2021/03/08 09:01:28;;;;;;;30.83;17.10;;;9.20;32.50;;;;;;5042386;28;20440;-86
2021/03/08 09:03:58;;;;;;;28.47;17.00;;;9.30;35.80;;;;;;5041582;28;20485;-86
2021/03/08 09:06:51;;;;;;;36.90;21.83;;;9.10;34.50;;;;;;5041037;28;20449;-86
2021/03/08 09:09:20;;;;;;;39.10;21.30;;;9.50;32.50;;;;;;5039032;28;20911;-86
2021/03/08 09:12:05;;;;;;;36.73;20.00;;;9.20;32.60;;;;;;5038893;28;20429;-86
2021/03/08 09:14:38;;;;;;;35.00;19.93;;;8.40;32.80;;;;;;5044136;28;20929;-86
2021/03/08 09:17:10;;;;;;;33.17;19.63;;;7.30;34.30;;;;;;5050232;28;20480;-86
2021/03/08 09:19:37;;;;;;;31.47;20.50;;;7.10;36.00;;;;;;5055921;28;20428;-86
2021/03/08 09:22:35;;;;;;;36.70;21.47;;;7.60;35.50;;;;;;5057820;28;20456;-86
2021/03/08 09:25:14;;;;;;;37.73;21.90;;;7.90;36.90;;;;;;5052806;28;20522;-86
2021/03/08 09:27:41;;;;;;;28.83;18.23;;;7.90;35.30;;;;;;5040173;28;20425;-87
2021/03/08 09:30:11;;;;;;;26.50;17.60;;;8.30;35.90;;;;;;5041131;28;20437;-87
2021/03/08 09:32:47;;;;;;;35.10;21.43;;;9.20;36.60;;;;;;5040481;28;20453;-87
2021/03/08 09:35:15;;;;;;;40.30;24.13;;;8.90;34.00;;;;;;5038551;28;20460;-87
2021/03/08 09:37:45;;;;;;;35.90;21.20;;;8.90;33.50;;;;;;5040881;28;20552;-86
2021/03/08 09:40:14;;;;;;;51.43;23.07;;;8.10;34.20;;;;;;5042616;28;20449;-85
2021/03/08 09:42:41;;;;;;;33.80;21.37;;;7.90;34.60;;;;;;5042262;28;20441;-87
2021/03/08 09:45:22;;;;;;;40.73;21.93;;;7.10;35.70;;;;;;5040253;28;20477;-86
2021/03/08 09:47:51;;;;;;;37.23;23.60;;;7.20;36.60;;;;;;5040853;28;20438;-86
2021/03/08 09:50:23;;;;;;;36.40;22.20;;;7.60;35.30;;;;;;5038987;28;20461;-86
2021/03/08 09:52:53;;;;;;;33.73;22.13;;;7.40;36.00;;;;;;5038916;28;20449;-86
2021/03/08 09:55:23;;;;;;;34.40;21.40;;;7.30;37.90;;;;;;5040648;28;20512;-86
2021/03/08 09:57:50;;;;;;;46.60;22.97;;;7.60;36.10;;;;;;5040267;28;20540;-86
2021/03/08 10:00:19;;;;;;;37.83;23.00;;;7.40;36.80;;;;;;5038688;28;20449;-86
2021/03/08 10:02:46;;;;;;;36.00;23.37;;;7.50;36.80;;;;;;5038586;28;20441;-86
2021/03/08 10:05:14;;;;;;;42.17;24.87;;;7.50;36.70;;;;;;5040116;28;20456;-86
2021/03/08 10:07:55;;;;;;;43.13;23.17;;;7.90;36.80;;;;;;5038535;28;20457;-86
2021/03/08 10:10:24;;;;;;;36.13;22.60;;;7.60;36.80;;;;;;5039203;28;20441;-86
2021/03/08 10:13:00;;;;;;;43.73;22.77;;;7.50;37.10;;;;;;5038646;28;20460;-86
2021/03/08 10:15:27;;;;;;;40.07;21.07;;;8.00;36.40;;;;;;5038957;28;20453;-86
2021/03/08 10:17:58;;;;;;;40.30;20.93;;;7.50;36.20;;;;;;5038781;28;20453;-86
2021/03/08 10:20:25;;;;;;;37.30;23.00;;;7.00;36.70;;;;;;5038027;28;20465;-86
2021/03/08 10:22:54;;;;;;;28.97;19.10;;;6.80;37.20;;;;;;5037479;28;20433;-86
2021/03/08 10:25:25;;;;;;;34.10;20.20;;;6.80;36.70;;;;;;5038659;28;20496;-86
2021/03/08 10:27:56;;;;;;;23.17;15.63;;;7.10;36.60;;;;;;5037924;28;20429;-86
2021/03/08 10:30:25;;;;;;;35.87;18.37;;;6.90;40.40;;;;;;5038838;28;20896;-86
2021/03/08 10:32:54;;;;;;;29.40;19.40;;;7.20;37.40;;;;;;5038053;28;20453;-86
2021/03/08 10:35:25;;;;;;;31.47;19.27;;;7.20;37.40;;;;;;5039466;28;20997;-86
2021/03/08 10:37:53;;;;;;;27.03;16.73;;;7.30;36.20;;;;;;5039513;28;20520;-86
2021/03/08 10:40:22;;;;;;;31.97;19.20;;;7.10;38.50;;;;;;5040982;28;20445;-85
2021/03/08 10:42:49;;;;;;;47.63;18.00;;;7.80;36.30;;;;;;5038428;28;20429;-85
2021/03/08 10:45:17;;;;;;;34.30;18.53;;;7.20;37.30;;;;;;5039451;28;20469;-85
2021/03/08 10:47:43;;;;;;;30.13;18.37;;;7.30;36.70;;;;;;5040617;28;20483;-85
2021/03/08 10:50:10;;;;;;;29.60;18.53;;;7.40;36.10;;;;;;5044939;28;20444;-85
2021/03/08 10:52:37;;;;;;;27.00;18.17;;;7.70;36.10;;;;;;5045862;28;20452;-86
2021/03/08 10:55:05;;;;;;;27.20;16.70;;;7.30;35.40;;;;;;5045210;28;20469;-86
2021/03/08 10:57:31;;;;;;;27.83;16.97;;;7.10;36.50;;;;;;5045850;28;21043;-86
2021/03/08 10:59:58;;;;;;;24.07;15.37;;;7.20;36.50;;;;;;5045570;28;20449;-87
2021/03/08 11:02:25;;;;;;;23.57;15.90;;;7.60;34.40;;;;;;5047108;28;20429;-87
2021/03/08 11:04:53;;;;;;;31.03;14.33;;;7.50;34.30;;;;;;5050020;28;20476;-86
2021/03/08 11:07:32;;;;;;;26.90;14.67;;;7.30;34.70;;;;;;5049948;28;20442;-86
2021/03/08 11:09:58;;;;;;;19.40;13.40;;;7.60;33.40;;;;;;5049344;28;20445;-86
2021/03/08 11:12:26;;;;;;;20.40;13.53;;;7.80;32.70;;;;;;5047303;28;20464;-87
2021/03/08 11:14:55;;;;;;;19.30;12.23;;;8.00;31.20;;;;;;5044171;28;20461;-86
2021/03/08 11:17:32;;;;;;;18.40;12.33;;;7.30;31.50;;;;;;5043915;28;20462;-86
2021/03/08 11:20:10;;;;;;;16.67;11.30;;;7.40;31.60;;;;;;5056441;28;20449;-86
2021/03/08 11:22:52;;;;;;;29.27;12.00;;;7.70;30.70;;;;;;5058370;28;20429;-85
2021/03/08 11:25:26;;;;;;;22.07;12.73;;;7.60;31.10;;;;;;5056816;28;20457;-86
2021/03/08 11:27:56;;;;;;;17.67;12.80;;;7.80;31.00;;;;;;5048077;28;20454;-86
2021/03/08 11:30:23;;;;;;;15.40;11.63;;;8.00;30.70;;;;;;5058995;28;20446;-85
2021/03/08 11:32:53;;;;;;;19.57;12.23;;;7.90;31.20;;;;;;5058984;28;20429;-85
2021/03/08 11:35:23;;;;;;;18.60;12.67;;;8.10;30.90;;;;;;5058805;28;20479;-86
2021/03/08 11:37:51;;;;;;;19.80;11.40;;;8.30;30.40;;;;;;5052592;28;20445;-86
2021/03/08 11:40:20;;;;;;;19.47;12.47;;;8.50;30.40;;;;;;5041536;28;20449;-86
2021/03/08 11:42:47;;;;;;;22.87;12.60;;;8.60;29.20;;;;;;5039950;28;20462;-86
2021/03/08 11:45:16;;;;;;;27.00;13.40;;;8.10;30.20;;;;;;5037299;28;20796;-86
2021/03/08 11:47:42;;;;;;;25.20;13.77;;;8.00;30.00;;;;;;5038003;28;20807;-85
2021/03/08 11:50:10;;;;;;;20.90;12.83;;;8.10;30.00;;;;;;5050198;28;20445;-85
2021/03/08 11:52:37;;;;;;;20.60;11.63;;;8.20;29.20;;;;;;5055737;28;20474;-85
2021/03/08 11:55:05;;;;;;;18.33;11.83;;;8.00;29.50;;;;;;5052407;28;20472;-85
2021/03/08 11:57:31;;;;;;;18.20;11.90;;;8.40;29.60;;;;;;5039437;28;20477;-85
2021/03/08 11:59:58;;;;;;;20.60;13.63;;;8.10;29.30;;;;;;5039194;28;20449;-86
2021/03/08 12:02:25;;;;;;;27.53;15.17;;;8.00;29.90;;;;;;5040178;28;20476;-85
2021/03/08 12:04:52;;;;;;;26.50;14.70;;;8.60;29.90;;;;;;5039263;28;20524;-85
2021/03/08 12:07:19;;;;;;;18.57;12.90;;;8.90;29.20;;;;;;5039000;28;20453;-86
2021/03/08 12:09:45;;;;;;;21.43;12.67;;;8.90;28.70;;;;;;5040989;28;20444;-86
2021/03/08 12:12:12;;;;;;;25.27;14.73;;;9.20;28.90;;;;;;5040964;28;20492;-86
2021/03/08 12:14:38;;;;;;;22.07;13.40;;;9.10;28.80;;;;;;5039327;28;20474;-87
2021/03/08 12:17:05;;;;;;;21.73;13.30;;;8.90;29.10;;;;;;5038568;28;20473;-86
2021/03/08 12:19:32;;;;;;;19.70;12.33;;;9.00;29.00;;;;;;5036548;28;20452;-87
2021/03/08 12:22:00;;;;;;;21.27;12.00;;;9.40;28.20;;;;;;5038094;28;20439;-87
2021/03/08 12:24:27;;;;;;;20.27;12.97;;;9.10;27.90;;;;;;5038251;28;20987;-86
2021/03/08 12:26:53;;;;;;;18.20;11.87;;;9.00;28.30;;;;;;5038482;28;20445;-86
2021/03/08 12:29:20;;;;;;;22.70;13.33;;;9.40;27.50;;;;;;5037621;28;20450;-86
2021/03/08 12:31:46;;;;;;;20.50;13.80;;;9.00;28.00;;;;;;5037370;28;20455;-86
2021/03/08 12:34:13;;;;;;;21.13;15.03;;;8.80;28.10;;;;;;5037055;28;20815;-87
2021/03/08 12:36:40;;;;;;;19.93;13.30;;;8.90;28.00;;;;;;5037193;28;21064;-86
2021/03/08 12:39:07;;;;;;;21.10;12.47;;;8.90;28.00;;;;;;5037418;28;20879;-86
2021/03/08 12:41:34;;;;;;;21.83;12.00;;;9.40;28.20;;;;;;5036577;28;20986;-87
2021/03/08 12:44:01;;;;;;;23.73;12.23;;;9.80;26.90;;;;;;5036233;28;20523;-87
2021/03/08 12:46:28;;;;;;;19.20;12.53;;;9.60;27.80;;;;;;5036662;28;20476;-88
2021/03/08 12:48:54;;;;;;;21.07;13.50;;;10.00;26.40;;;;;;5036568;28;20509;-87
2021/03/08 12:51:21;;;;;;;16.57;12.60;;;10.20;26.20;;;;;;5037487;28;20434;-87
2021/03/08 12:53:49;;;;;;;20.10;10.00;;;9.80;26.80;;;;;;5037001;28;20565;-87
2021/03/08 12:56:15;;;;;;;21.40;13.87;;;10.10;29.80;;;;;;5036722;28;20544;-87
2021/03/08 12:58:42;;;;;;;17.97;12.10;;;10.40;26.00;;;;;;5037354;28;20455;-87
2021/03/08 13:01:08;;;;;;;17.60;9.77;;;10.10;26.50;;;;;;5037134;28;20781;-87